createdAt,value
2023-03-05T00:01:08.010Z,8.98
2023-03-05T00:03:34.834Z,8.50
2023-03-05T00:06:02.010Z,9.85
2023-03-05T00:08:31.213Z,9.80
2023-03-05T00:11:03.060Z,8.90
2023-03-05T00:13:30.043Z,10.50
2023-03-05T00:15:57.188Z,8.95
2023-03-05T00:18:24.335Z,9.48
2023-03-05T00:20:51.407Z,9.35
2023-03-05T00:23:18.208Z,9.43
2023-03-05T00:25:46.646Z,8.88
2023-03-05T00:28:13.484Z,9.77
2023-03-05T00:30:40.782Z,9.20
2023-03-05T00:33:08.049Z,10.05
2023-03-05T00:35:42.338Z,10.05
2023-03-05T00:38:09.472Z,9.55
2023-03-05T00:40:38.065Z,10.55
2023-03-05T00:43:04.968Z,9.45
2023-03-05T00:45:32.094Z,9.02
2023-03-05T00:47:58.835Z,9.32
2023-03-05T00:50:26.251Z,9.77
2023-03-05T00:52:53.035Z,9.35
2023-03-05T00:55:20.199Z,10.27
2023-03-05T00:57:47.042Z,9.25
2023-03-05T01:00:14.410Z,9.13
2023-03-05T01:02:41.319Z,9.55
2023-03-05T01:05:10.857Z,9.10
2023-03-05T01:07:37.668Z,9.32
2023-03-05T01:10:05.246Z,9.30
2023-03-05T01:12:32.039Z,9.38
2023-03-05T01:14:59.148Z,8.48
2023-03-05T01:17:26.698Z,8.77
2023-03-05T01:19:53.767Z,9.50
2023-03-05T01:22:20.547Z,9.88
2023-03-05T01:24:47.668Z,8.18
2023-03-05T01:27:14.450Z,8.95
2023-03-05T01:29:41.541Z,8.43
2023-03-05T01:32:08.355Z,8.85
2023-03-05T01:34:37.382Z,7.88
2023-03-05T01:37:04.186Z,8.18
2023-03-05T01:39:31.319Z,8.70
2023-03-05T01:41:58.107Z,8.68
2023-03-05T01:44:27.650Z,8.85
2023-03-05T01:46:54.456Z,7.90
2023-03-05T01:49:24.161Z,8.13
2023-03-05T01:52:23.586Z,8.73
2023-03-05T01:54:52.299Z,8.68
2023-03-05T01:57:25.151Z,7.80
2023-03-05T01:59:55.755Z,8.07
2023-03-05T02:02:22.602Z,8.23
2023-03-05T02:04:56.228Z,7.55
2023-03-05T02:07:22.999Z,8.02
2023-03-05T02:09:50.204Z,8.13
2023-03-05T02:12:16.982Z,8.82
2023-03-05T02:14:46.202Z,8.35
2023-03-05T02:17:13.196Z,9.00
2023-03-05T02:20:10.959Z,8.77
2023-03-05T02:22:37.836Z,8.88
2023-03-05T02:25:16.132Z,8.80
2023-03-05T02:27:43.475Z,9.55
2023-03-05T02:30:11.194Z,9.25
2023-03-05T02:32:38.114Z,9.00
2023-03-05T02:35:05.624Z,8.70
2023-03-05T02:37:52.487Z,8.77
2023-03-05T02:40:19.564Z,10.02
2023-03-05T02:42:46.812Z,8.88
2023-03-05T02:45:13.901Z,8.30
2023-03-05T02:47:40.768Z,8.98
2023-03-05T02:50:08.480Z,9.85
2023-03-05T02:52:35.312Z,8.02
2023-03-05T02:55:02.428Z,9.65
2023-03-05T02:57:29.205Z,8.43
2023-03-05T02:59:56.304Z,8.77
2023-03-05T03:02:23.157Z,7.82
2023-03-05T03:04:50.300Z,8.18
2023-03-05T03:07:17.071Z,8.00
2023-03-05T03:09:44.213Z,8.95
2023-03-05T03:12:11.315Z,9.25
2023-03-05T03:14:39.630Z,8.85
2023-03-05T03:17:07.383Z,8.00
2023-03-05T03:19:35.465Z,8.77
2023-03-05T03:22:02.385Z,8.35
2023-03-05T03:24:30.347Z,8.25
2023-03-05T03:26:57.281Z,7.60
2023-03-05T03:29:24.600Z,9.00
2023-03-05T03:31:51.391Z,8.45
2023-03-05T03:34:18.669Z,7.70
2023-03-05T03:36:45.592Z,8.10
2023-03-05T03:39:14.083Z,7.40
2023-03-05T03:41:41.875Z,7.78
2023-03-05T03:44:10.686Z,7.63
2023-03-05T03:46:38.329Z,8.45
2023-03-05T03:49:05.926Z,8.10
2023-03-05T03:51:32.793Z,7.05
2023-03-05T03:54:00.236Z,8.05
2023-03-05T03:56:27.149Z,6.40
2023-03-05T03:58:54.356Z,6.47
2023-03-05T04:01:21.491Z,7.10
2023-03-05T04:03:48.608Z,6.50
2023-03-05T04:06:15.447Z,7.03
2023-03-05T04:08:42.610Z,6.07
2023-03-05T04:11:09.389Z,6.18
2023-03-05T04:13:36.502Z,6.60
2023-03-05T04:16:03.329Z,6.05
2023-03-05T04:18:32.464Z,6.45
2023-03-05T04:20:59.358Z,6.88
2023-03-05T04:23:26.466Z,6.20
2023-03-05T04:25:53.266Z,7.38
2023-03-05T04:28:20.384Z,6.55
2023-03-05T04:30:47.243Z,6.75
2023-03-05T04:33:14.402Z,6.75
2023-03-05T04:35:41.172Z,6.20
2023-03-05T04:38:08.305Z,6.28
2023-03-05T04:40:35.251Z,5.97
2023-03-05T04:43:02.569Z,6.50
2023-03-05T04:45:29.433Z,6.55
2023-03-05T04:47:56.482Z,6.28
2023-03-05T04:50:23.375Z,6.47
2023-03-05T04:52:50.503Z,7.20
2023-03-05T04:55:17.734Z,6.93
2023-03-05T04:57:44.786Z,7.68
2023-03-05T05:00:15.976Z,8.63
2023-03-05T05:02:44.403Z,8.85
2023-03-05T05:05:25.612Z,7.47
2023-03-05T05:07:56.803Z,6.88
2023-03-05T05:10:24.655Z,7.57
2023-03-05T05:12:51.751Z,7.68
2023-03-05T05:15:18.634Z,8.57
2023-03-05T05:17:46.019Z,7.97
2023-03-05T05:20:14.293Z,8.13
2023-03-05T05:22:41.544Z,7.85
2023-03-05T05:25:08.705Z,6.65
2023-03-05T05:27:35.980Z,7.68
2023-03-05T05:30:04.120Z,7.47
2023-03-05T05:32:31.177Z,7.40
2023-03-05T05:34:58.325Z,7.63
2023-03-05T05:37:25.777Z,7.70
2023-03-05T05:39:52.655Z,8.10
2023-03-05T05:42:20.621Z,6.82
2023-03-05T05:44:47.679Z,7.82
2023-03-05T05:47:15.694Z,6.75
2023-03-05T05:49:42.523Z,6.82
2023-03-05T05:52:09.744Z,8.00
2023-03-05T05:54:36.564Z,7.00
2023-03-05T05:57:03.774Z,7.47
2023-03-05T05:59:30.515Z,6.88
2023-03-05T06:01:57.628Z,7.45
2023-03-05T06:04:24.392Z,7.78
2023-03-05T06:06:51.434Z,7.53
2023-03-05T06:09:18.257Z,7.10
2023-03-05T06:11:45.400Z,8.02
2023-03-05T06:14:12.422Z,7.60
2023-03-05T06:16:40.100Z,7.78
2023-03-05T06:19:07.023Z,9.02
2023-03-05T06:21:34.100Z,7.90
2023-03-05T06:24:01.090Z,7.88
2023-03-05T06:26:28.153Z,8.35
2023-03-05T06:28:55.094Z,8.75
2023-03-05T06:31:23.437Z,8.23
2023-03-05T06:33:50.341Z,7.68
2023-03-05T06:36:18.737Z,7.68
2023-03-05T06:38:46.947Z,9.05
2023-03-05T06:41:17.420Z,8.82
2023-03-05T06:43:44.874Z,7.93
2023-03-05T06:46:13.571Z,8.20
2023-03-05T06:48:40.359Z,8.43
2023-03-05T06:51:14.263Z,8.43
2023-03-05T06:53:41.219Z,8.20
2023-03-05T06:56:08.434Z,9.15
2023-03-05T06:58:35.228Z,8.55
2023-03-05T07:01:04.406Z,8.98
2023-03-05T07:03:31.196Z,8.50
2023-03-05T07:05:58.276Z,8.65
2023-03-05T07:08:25.004Z,9.57
2023-03-05T07:10:52.091Z,8.23
2023-03-05T07:13:18.863Z,7.90
2023-03-05T07:15:46.039Z,10.23
2023-03-05T07:18:12.812Z,8.48
2023-03-05T07:20:39.915Z,10.25
2023-03-05T07:23:06.673Z,8.45
2023-03-05T07:25:36.041Z,9.88
2023-03-05T07:28:05.415Z,9.27
2023-03-05T07:30:33.643Z,9.60
2023-03-05T07:33:00.454Z,9.98
2023-03-05T07:35:27.502Z,9.75
2023-03-05T07:37:55.858Z,10.02
2023-03-05T07:40:23.052Z,9.95
2023-03-05T07:42:49.813Z,10.55
2023-03-05T07:45:16.904Z,10.85
2023-03-05T07:47:43.701Z,10.82
2023-03-05T07:50:11.310Z,10.70
2023-03-05T07:52:38.140Z,10.90
2023-03-05T07:55:05.462Z,10.25
2023-03-05T07:57:35.500Z,10.80
2023-03-05T08:00:02.590Z,11.57
2023-03-05T08:02:29.789Z,11.02
2023-03-05T08:04:56.973Z,12.25
2023-03-05T08:07:23.718Z,13.95
2023-03-05T08:09:50.830Z,12.45
2023-03-05T08:12:17.680Z,12.82
2023-03-05T08:14:44.815Z,13.32
2023-03-05T08:17:11.613Z,11.45
2023-03-05T08:19:38.771Z,12.07
2023-03-05T08:22:05.640Z,12.38
2023-03-05T08:24:32.696Z,11.13
2023-03-05T08:26:59.549Z,11.90
2023-03-05T08:29:26.876Z,12.40
2023-03-05T08:31:54.072Z,11.82
2023-03-05T08:34:21.380Z,13.23
2023-03-05T08:36:48.937Z,13.45
2023-03-05T08:39:16.508Z,13.85
2023-03-05T08:41:43.306Z,13.50
2023-03-05T08:44:10.411Z,12.93
2023-03-05T08:46:39.522Z,14.90
2023-03-05T08:49:07.469Z,13.63
2023-03-05T08:51:34.822Z,12.85
2023-03-05T08:54:02.537Z,13.95
2023-03-05T08:56:31.423Z,14.25
2023-03-05T08:58:58.507Z,13.43
2023-03-05T09:01:25.325Z,14.20
2023-03-05T09:03:52.472Z,14.85
2023-03-05T09:06:19.200Z,14.35
2023-03-05T09:08:46.266Z,15.20
2023-03-05T09:11:13.179Z,15.60
2023-03-05T09:13:40.346Z,15.27
2023-03-05T09:16:09.106Z,14.38
2023-03-05T09:18:40.232Z,14.13
2023-03-05T09:21:16.982Z,15.77
2023-03-05T09:23:44.378Z,15.07
2023-03-05T09:26:12.263Z,15.23
2023-03-05T09:28:39.966Z,15.65
2023-03-05T09:31:07.798Z,13.70
2023-03-05T09:33:35.800Z,15.48
2023-03-05T09:36:02.752Z,14.15
2023-03-05T09:38:29.828Z,14.13
2023-03-05T09:41:07.834Z,14.43
2023-03-05T09:43:59.454Z,13.77
2023-03-05T09:46:51.682Z,14.55
2023-03-05T09:49:50.920Z,13.10
2023-03-05T09:52:22.214Z,14.25
2023-03-05T09:54:53.049Z,13.88
2023-03-05T09:57:22.748Z,13.73
2023-03-05T09:59:56.063Z,13.73
2023-03-05T10:02:23.948Z,13.45
2023-03-05T10:05:00.888Z,14.55
2023-03-05T10:07:28.845Z,13.57
2023-03-05T10:10:10.084Z,14.40
2023-03-05T10:12:46.522Z,13.93
2023-03-05T10:15:30.527Z,13.38
2023-03-05T10:18:16.872Z,14.15
2023-03-05T10:20:51.645Z,13.10
2023-03-05T10:23:26.988Z,13.50
2023-03-05T10:26:11.320Z,13.80
2023-03-05T10:28:50.004Z,13.75
2023-03-05T10:31:46.836Z,14.35
2023-03-05T10:34:27.988Z,13.75
2023-03-05T10:36:58.441Z,12.52
2023-03-05T10:40:10.957Z,12.00
2023-03-05T10:42:56.620Z,14.00
2023-03-05T10:45:26.715Z,12.85
2023-03-05T10:48:05.520Z,13.00
2023-03-05T10:50:36.254Z,13.18
2023-03-05T10:53:10.592Z,13.82
2023-03-05T10:55:37.377Z,12.52
2023-03-05T10:58:11.527Z,13.95
2023-03-05T11:00:38.344Z,12.20
2023-03-05T11:03:07.330Z,14.65
2023-03-05T11:05:42.637Z,14.02
2023-03-05T11:08:36.255Z,14.52
2023-03-05T11:11:10.464Z,15.02
2023-03-05T11:13:44.025Z,15.02
2023-03-05T11:16:21.228Z,14.70
2023-03-05T11:18:48.686Z,14.30
2023-03-05T11:21:19.820Z,12.18
2023-03-05T11:24:06.930Z,12.90
2023-03-05T11:26:33.725Z,11.57
2023-03-05T11:29:03.249Z,11.02
2023-03-05T11:31:31.684Z,9.40
2023-03-05T11:34:00.028Z,10.13
2023-03-05T11:36:37.165Z,9.27
2023-03-05T11:39:10.536Z,8.32
2023-03-05T11:41:38.460Z,7.78
2023-03-05T11:44:13.873Z,7.85
2023-03-05T11:46:47.101Z,6.80
2023-03-05T11:49:22.771Z,7.20
2023-03-05T11:54:26.813Z,7.65
2023-03-05T11:56:53.645Z,8.18
2023-03-05T11:59:25.058Z,7.80
2023-03-05T12:01:53.449Z,7.50
2023-03-05T12:04:20.735Z,7.10
2023-03-05T12:06:55.074Z,7.93
2023-03-05T12:09:31.240Z,7.28
2023-03-05T12:12:06.888Z,6.03
2023-03-05T12:14:45.405Z,7.10
2023-03-05T12:17:21.229Z,7.45
2023-03-05T12:20:06.568Z,6.50
2023-03-05T12:22:40.892Z,7.07
2023-03-05T12:25:35.157Z,6.07
2023-03-05T12:28:02.190Z,6.07
2023-03-05T12:30:35.364Z,7.13
2023-03-05T12:33:03.636Z,6.15
2023-03-05T12:35:31.994Z,5.32
2023-03-05T12:38:48.187Z,5.63
2023-03-05T12:41:25.819Z,5.97
2023-03-05T12:44:05.639Z,6.07
2023-03-05T12:46:40.045Z,5.72
2023-03-05T12:49:19.220Z,7.28
2023-03-05T12:51:49.722Z,5.55
2023-03-05T12:54:32.825Z,5.65
2023-03-05T12:57:15.187Z,6.05
2023-03-05T12:59:48.767Z,5.78
2023-03-05T13:02:40.069Z,6.65
2023-03-05T13:05:27.323Z,7.05
2023-03-05T13:07:55.075Z,7.85
2023-03-05T13:10:27.386Z,6.10
2023-03-05T13:12:56.206Z,6.70
2023-03-05T13:15:23.904Z,7.13
2023-03-05T13:17:57.503Z,6.97
2023-03-05T13:20:39.450Z,6.28
2023-03-05T13:23:25.220Z,6.60
2023-03-05T13:25:59.174Z,6.68
2023-03-05T13:28:26.603Z,6.43
2023-03-05T13:30:55.158Z,6.60
2023-03-05T13:33:26.314Z,7.13
2023-03-05T13:35:54.138Z,7.55
2023-03-05T13:38:23.554Z,7.85
2023-03-05T13:41:06.517Z,7.60
2023-03-05T13:43:33.816Z,8.43
2023-03-05T13:46:03.893Z,7.97
2023-03-05T13:48:31.074Z,8.45
2023-03-05T13:50:58.235Z,7.43
2023-03-05T13:53:30.046Z,7.85
2023-03-05T13:55:58.592Z,7.47
2023-03-05T13:58:48.076Z,7.30
2023-03-05T14:01:21.076Z,6.93
2023-03-05T14:03:52.789Z,7.55
2023-03-05T14:06:20.958Z,5.95
2023-03-05T14:08:52.196Z,6.28
2023-03-05T14:11:19.095Z,5.85
2023-03-05T14:13:47.273Z,5.70
2023-03-05T14:16:15.090Z,6.57
2023-03-05T14:18:56.293Z,6.93
2023-03-05T14:21:23.441Z,5.32
2023-03-05T14:23:55.052Z,5.35
2023-03-05T14:26:30.600Z,5.30
2023-03-05T14:29:00.637Z,5.28
2023-03-05T14:31:28.601Z,5.40
2023-03-05T14:34:01.111Z,4.70
2023-03-05T14:36:29.177Z,4.38
2023-03-05T14:38:56.975Z,5.22
2023-03-05T14:41:40.762Z,4.53
2023-03-05T14:44:15.822Z,4.25
2023-03-05T14:46:43.041Z,5.38
2023-03-05T14:49:10.406Z,5.43
2023-03-05T14:51:42.781Z,6.30
2023-03-05T14:54:24.327Z,6.03
2023-03-05T14:56:51.277Z,6.35
2023-03-05T14:59:19.051Z,6.30
2023-03-05T15:01:45.909Z,8.77
2023-03-05T15:04:15.794Z,8.05
2023-03-05T15:06:45.371Z,8.07
2023-03-05T15:09:12.595Z,9.48
2023-03-05T15:11:39.508Z,11.50
2023-03-05T15:14:06.917Z,9.13
2023-03-05T15:16:34.591Z,10.70
2023-03-05T15:19:03.692Z,10.48
2023-03-05T15:21:30.590Z,9.82
2023-03-05T15:23:57.735Z,7.85
2023-03-05T15:26:24.649Z,8.32
2023-03-05T15:28:51.867Z,7.47
2023-03-05T15:31:18.790Z,7.45
2023-03-05T15:33:45.907Z,7.05
2023-03-05T15:36:13.713Z,6.80
2023-03-05T15:38:41.759Z,6.78
2023-03-05T15:41:08.701Z,7.10
2023-03-05T15:43:37.031Z,6.22
2023-03-05T15:46:05.884Z,7.47
2023-03-05T15:48:33.139Z,8.02
2023-03-05T15:51:00.008Z,7.07
2023-03-05T15:53:27.154Z,7.18
2023-03-05T15:55:54.060Z,7.15
2023-03-05T15:58:21.793Z,7.57
2023-03-05T16:00:49.143Z,7.43
2023-03-05T16:03:16.399Z,7.85
2023-03-05T16:05:43.342Z,7.90
2023-03-05T16:08:10.555Z,6.57
2023-03-05T16:10:39.558Z,7.90
2023-03-05T16:13:12.359Z,8.52
2023-03-05T16:15:39.820Z,7.90
2023-03-05T16:18:08.498Z,7.70
2023-03-05T16:20:36.392Z,8.32
2023-03-05T16:23:04.423Z,8.65
2023-03-05T16:25:31.462Z,9.25
2023-03-05T16:27:58.660Z,8.02
2023-03-05T16:30:25.594Z,8.77
2023-03-05T16:32:53.790Z,9.23
2023-03-05T16:35:20.876Z,10.32
2023-03-05T16:37:48.083Z,10.50
2023-03-05T16:40:15.347Z,12.00
2023-03-05T16:42:42.844Z,11.68
2023-03-05T16:45:10.651Z,12.15
2023-03-05T16:47:38.442Z,11.77
2023-03-05T16:50:06.154Z,12.30
2023-03-05T16:52:33.413Z,13.32
2023-03-05T16:55:00.405Z,12.52
2023-03-05T16:57:28.997Z,13.20
2023-03-05T16:59:56.422Z,12.18
2023-03-05T17:02:23.190Z,12.65
2023-03-05T17:04:50.771Z,12.75
2023-03-05T17:07:18.090Z,12.50
2023-03-05T17:09:46.421Z,11.48
2023-03-05T17:12:13.310Z,13.38
2023-03-05T17:14:40.594Z,12.05
2023-03-05T17:17:07.678Z,13.50
2023-03-05T17:19:34.925Z,13.65
2023-03-05T17:22:02.264Z,13.05
2023-03-05T17:24:30.440Z,13.75
2023-03-05T17:26:57.336Z,14.52
2023-03-05T17:29:24.897Z,13.73
2023-03-05T17:31:53.374Z,13.98
2023-03-05T17:34:33.316Z,15.55
2023-03-05T17:37:00.930Z,14.63
2023-03-05T17:39:28.131Z,14.73
2023-03-05T17:41:54.934Z,14.57
2023-03-05T17:44:22.089Z,14.30
2023-03-05T17:46:48.981Z,14.95
2023-03-05T17:49:16.127Z,14.07
2023-03-05T17:51:43.145Z,13.38
2023-03-05T17:54:10.458Z,14.52
2023-03-05T17:56:37.360Z,14.90
2023-03-05T17:59:04.504Z,14.18
2023-03-05T18:01:32.933Z,13.82
2023-03-05T18:04:00.387Z,14.52
2023-03-05T18:06:27.405Z,14.50
2023-03-05T18:08:54.564Z,14.90
2023-03-05T18:11:21.470Z,14.25
2023-03-05T18:13:48.720Z,12.25
2023-03-05T18:16:17.103Z,13.73
2023-03-05T18:18:44.630Z,13.32
2023-03-05T18:21:11.703Z,14.15
2023-03-05T18:23:38.942Z,13.63
2023-03-05T18:26:05.901Z,12.13
2023-03-05T18:28:33.280Z,12.23
2023-03-05T18:31:00.956Z,13.05
2023-03-05T18:33:28.168Z,13.55
2023-03-05T18:39:16.547Z,13.60
2023-03-05T18:41:43.422Z,13.60
2023-03-05T18:44:11.120Z,14.32
2023-03-05T18:46:38.093Z,13.38
2023-03-05T18:49:05.477Z,14.73
2023-03-05T18:51:32.556Z,14.27
2023-03-05T18:53:59.768Z,13.52
2023-03-05T18:56:26.674Z,14.40
2023-03-05T18:58:53.928Z,14.13
2023-03-05T19:01:20.884Z,14.93
2023-03-05T19:03:49.224Z,14.40
2023-03-05T19:06:17.778Z,13.93
2023-03-05T19:08:45.325Z,15.43
2023-03-05T19:11:20.057Z,13.75
2023-03-05T19:13:51.131Z,13.95
2023-03-05T19:16:27.817Z,15.93
2023-03-05T19:19:16.623Z,14.98
2023-03-05T19:21:45.640Z,14.25
2023-03-05T19:24:13.024Z,15.23
2023-03-05T19:26:39.962Z,15.40
2023-03-05T19:29:07.411Z,14.80
2023-03-05T19:31:34.447Z,15.82
2023-03-05T19:34:01.974Z,16.42
2023-03-05T19:36:29.623Z,16.42
2023-03-05T19:38:56.821Z,15.73
2023-03-05T19:41:24.138Z,16.50
2023-03-05T19:43:51.341Z,17.83
2023-03-05T19:46:18.453Z,16.90
2023-03-05T19:48:45.845Z,17.15
2023-03-05T19:51:19.779Z,19.13
2023-03-05T19:53:47.139Z,18.13
2023-03-05T19:56:16.376Z,17.00
2023-03-05T19:58:47.649Z,15.88
2023-03-05T20:01:16.580Z,17.77
2023-03-05T20:03:47.805Z,17.25
2023-03-05T20:06:14.881Z,16.10
2023-03-05T20:08:42.114Z,16.48
2023-03-05T20:11:10.422Z,18.63
2023-03-05T20:13:38.155Z,18.67
2023-03-05T20:16:06.169Z,16.77
2023-03-05T20:18:33.723Z,17.92
2023-03-05T20:21:02.826Z,18.63
2023-03-05T20:23:30.236Z,17.73
2023-03-05T20:25:57.236Z,17.27
2023-03-05T20:28:26.381Z,18.90
2023-03-05T20:30:57.831Z,18.55
2023-03-05T20:33:25.353Z,17.02
2023-03-05T20:35:53.501Z,18.52
2023-03-05T20:38:21.657Z,18.05
2023-03-05T20:40:56.037Z,18.58
2023-03-05T20:43:23.477Z,19.17
2023-03-05T20:45:50.552Z,17.05
2023-03-05T20:48:17.686Z,17.05
2023-03-05T20:50:46.756Z,18.08
2023-03-05T20:53:14.364Z,18.80
2023-03-05T20:55:41.844Z,19.20
2023-03-05T20:58:09.228Z,17.65
2023-03-05T21:00:36.431Z,20.65
2023-03-05T21:03:03.657Z,19.98
2023-03-05T21:05:30.489Z,18.83
2023-03-05T21:07:58.513Z,18.48
2023-03-05T21:10:25.578Z,18.70
2023-03-05T21:12:52.984Z,18.23
2023-03-05T21:15:22.338Z,18.40
2023-03-05T21:17:50.559Z,18.27
2023-03-05T21:20:20.224Z,19.13
2023-03-05T21:22:47.357Z,19.02
2023-03-05T21:25:24.853Z,18.08
2023-03-05T21:27:55.481Z,18.73
2023-03-05T21:30:22.494Z,17.98
2023-03-05T21:32:49.903Z,17.02
2023-03-05T21:35:21.230Z,17.25
2023-03-05T21:37:48.449Z,18.02
2023-03-05T21:40:16.942Z,16.73
2023-03-05T21:42:44.232Z,16.60
2023-03-05T21:45:13.401Z,15.88
2023-03-05T21:47:40.386Z,17.67
2023-03-05T21:50:08.027Z,15.65
2023-03-05T21:52:34.938Z,16.58
2023-03-05T21:55:02.146Z,15.05
2023-03-05T21:57:29.314Z,14.85
2023-03-05T21:59:56.915Z,15.60
2023-03-05T22:02:24.086Z,14.70
2023-03-05T22:04:51.401Z,14.82
2023-03-05T22:07:18.631Z,14.40
2023-03-05T22:09:46.098Z,15.27
2023-03-05T22:13:11.400Z,14.45
2023-03-05T22:15:57.539Z,14.77
2023-03-05T22:18:29.094Z,14.25
2023-03-05T22:20:56.571Z,14.95
2023-03-05T22:23:24.466Z,15.68
2023-03-05T22:26:02.758Z,15.52
2023-03-05T22:28:29.631Z,14.85
2023-03-05T22:30:56.784Z,14.05
2023-03-05T22:33:23.659Z,14.88
2023-03-05T22:35:50.883Z,14.00
2023-03-05T22:38:17.752Z,13.52
2023-03-05T22:40:46.237Z,14.43
2023-03-05T22:43:13.736Z,14.77
2023-03-05T22:45:40.919Z,14.65
2023-03-05T22:48:09.857Z,14.73
2023-03-05T22:50:40.767Z,14.57
2023-03-05T22:53:07.692Z,13.80
2023-03-05T22:55:34.905Z,15.52
2023-03-05T22:58:01.663Z,12.60
2023-03-05T23:00:28.730Z,14.65
2023-03-05T23:02:55.636Z,14.60
2023-03-05T23:05:22.779Z,13.50
2023-03-05T23:07:49.799Z,12.75
2023-03-05T23:10:26.969Z,12.63
2023-03-05T23:12:54.667Z,14.85
2023-03-05T23:15:26.852Z,13.02
2023-03-05T23:17:53.615Z,13.00
2023-03-05T23:20:22.791Z,12.57
2023-03-05T23:22:49.690Z,13.40
2023-03-05T23:25:16.834Z,13.25
2023-03-05T23:27:43.805Z,13.35
2023-03-05T23:30:17.426Z,13.10
2023-03-05T23:32:46.155Z,12.85
2023-03-05T23:35:13.862Z,14.05
2023-03-05T23:37:41.218Z,14.10
2023-03-05T23:40:09.851Z,13.73
2023-03-05T23:42:38.201Z,12.93
2023-03-05T23:45:10.073Z,12.45
2023-03-05T23:47:37.172Z,13.45
2023-03-05T23:50:05.813Z,12.60
2023-03-05T23:52:33.070Z,12.07
2023-03-05T23:55:00.223Z,12.10
2023-03-05T23:57:27.258Z,13.00
2023-03-05T23:59:54.541Z,11.98
